Wheaton, IL (60187)

6:53 AM CDT on August 28, 2016 (GMT -0500)
N9ABF - West Wheaton | | Change Station
Active Advisory: Special Statement Active Notice: Local Storm Report

Elev 751 ft 41.87 °N, 88.13 °W | Updated 14 minutes ago

Clear
Clear
67.6 °F
Feels Like 67.6 °F
N
0.0
Wind Variable Wind from SSW
Gusts 0.0 mph

Today
High -- | Low -- °F
--% Chance of Precip.
Yesterday
High -- | Low -- °F
Precip. -- in
Pressure 30.13 in
Visibility 7.0 miles
Clouds Clear
Dew Point 65 °F
Humidity 91%
Rainfall 0.00 in
Snow Depth Not available.
6:14 AM 7:31 PM
Waning Crescent, 16% visible
METAR KDPA 281052Z 00000KT 7SM CLR 20/18 A3014 RMK AO2 SLP202 T02000183
Pressure 30.13 in
Visibility 7.0 miles
Clouds Clear
Dew Point 65 °F
Humidity 91%
Rainfall 0.00 in
Snow Depth Not available.
6:14 AM 7:31 PM
Waning Crescent, 16% visible
METAR KDPA 281052Z 00000KT 7SM CLR 20/18 A3014 RMK AO2 SLP202 T02000183

10-Day Weather Forecast

Almanac

Astronomy

Aug. 28, 2016 Rise Set
Actual Time
Civil Twilight
Nautical Twilight
Astronomical Twilight
Moon
Length of Visible Light
Length of Day
Tomorrow will be .
, % of the Moon is Illuminated

Today's Extremes

State Highs State Lows

Community

WunderPhotos

Upload Photos

1,935,549 photos uploaded!

WunderBlog® & News

Nearby

Air Quality

  Air Quality AQ Index Pollutant
Not available.

Snow Depth

Station Depth Elevation

Earthquake Activity

City Distance Mag. Time & Date
Minimum magnitude displayed is 2.5.

Coastal Water Temperatures

Place Temperature

Stations

Nearby Weather Stations

Station Location Temp. Windchill Dew Point Humidity Wind Precip. Elev Updated Type
                   

Watches & Warnings

Special Statement
Issued: 4:01 AM CDT Aug. 28, 2016 – National Weather Service

... Fog developing across portions of northern Illinois...

Fog will continue to develop early this morning across portions of
northern Illinois. Visibility in some areas has already been
reduced to half a mile... and some fog prone areas may develop
dense fog with visibility of a quarter mile or less. Motorists
should use caution and be prepared for quickly changing
visibility.


Bmd